sensor_id;sensor_type;location;lat;lon;timestamp;P1;durP1;ratioP1;P2;durP2;ratioP2
70122;SDS011;57489;37.404;24.920;2023-06-26T00:00:05;12.93;;;4.97;;
70122;SDS011;57489;37.404;24.920;2023-06-26T00:05:06;11.30;;;5.57;;
70122;SDS011;57489;37.404;24.920;2023-06-26T00:10:06;12.07;;;5.07;;
70122;SDS011;57489;37.404;24.920;2023-06-26T00:15:07;15.50;;;5.87;;
70122;SDS011;57489;37.404;24.920;2023-06-26T00:20:07;10.10;;;5.07;;
70122;SDS011;57489;37.404;24.920;2023-06-26T00:25:07;10.33;;;4.57;;
70122;SDS011;57489;37.404;24.920;2023-06-26T00:30:08;9.48;;;5.07;;
70122;SDS011;57489;37.404;24.920;2023-06-26T00:35:08;9.73;;;4.80;;
70122;SDS011;57489;37.404;24.920;2023-06-26T00:40:09;9.33;;;4.63;;
70122;SDS011;57489;37.404;24.920;2023-06-26T00:45:09;9.47;;;4.70;;
70122;SDS011;57489;37.404;24.920;2023-06-26T00:50:09;9.43;;;4.88;;
70122;SDS011;57489;37.404;24.920;2023-06-26T00:55:10;8.73;;;4.40;;
70122;SDS011;57489;37.404;24.920;2023-06-26T01:00:10;9.40;;;3.97;;
70122;SDS011;57489;37.404;24.920;2023-06-26T01:05:11;8.00;;;4.50;;
70122;SDS011;57489;37.404;24.920;2023-06-26T01:10:11;8.35;;;3.65;;
70122;SDS011;57489;37.404;24.920;2023-06-26T01:15:11;8.25;;;4.32;;
70122;SDS011;57489;37.404;24.920;2023-06-26T01:20:12;8.60;;;4.55;;
70122;SDS011;57489;37.404;24.920;2023-06-26T01:25:19;8.83;;;4.20;;
70122;SDS011;57489;37.404;24.920;2023-06-26T01:30:21;10.13;;;4.43;;
70122;SDS011;57489;37.404;24.920;2023-06-26T01:35:21;9.13;;;4.70;;
70122;SDS011;57489;37.404;24.920;2023-06-26T01:40:22;9.77;;;4.33;;
70122;SDS011;57489;37.404;24.920;2023-06-26T01:45:27;9.85;;;4.90;;
70122;SDS011;57489;37.404;24.920;2023-06-26T01:50:29;8.85;;;4.20;;
70122;SDS011;57489;37.404;24.920;2023-06-26T02:00:36;9.00;;;5.03;;
70122;SDS011;57489;37.404;24.920;2023-06-26T02:05:37;9.30;;;4.47;;
70122;SDS011;57489;37.404;24.920;2023-06-26T02:10:37;9.88;;;5.25;;
70122;SDS011;57489;37.404;24.920;2023-06-26T02:15:37;13.32;;;5.28;;
70122;SDS011;57489;37.404;24.920;2023-06-26T02:20:39;10.40;;;4.15;;
70122;SDS011;57489;37.404;24.920;2023-06-26T02:25:39;11.75;;;4.50;;
70122;SDS011;57489;37.404;24.920;2023-06-26T02:30:39;11.97;;;4.63;;
70122;SDS011;57489;37.404;24.920;2023-06-26T02:35:40;10.82;;;4.80;;
70122;SDS011;57489;37.404;24.920;2023-06-26T02:40:40;8.88;;;4.20;;
70122;SDS011;57489;37.404;24.920;2023-06-26T02:45:40;7.00;;;3.87;;
70122;SDS011;57489;37.404;24.920;2023-06-26T02:50:40;12.40;;;4.70;;
70122;SDS011;57489;37.404;24.920;2023-06-26T02:55:40;9.73;;;4.50;;
70122;SDS011;57489;37.404;24.920;2023-06-26T03:00:41;11.70;;;4.50;;
70122;SDS011;57489;37.404;24.920;2023-06-26T03:05:41;8.98;;;4.68;;
70122;SDS011;57489;37.404;24.920;2023-06-26T03:10:41;10.43;;;4.35;;
70122;SDS011;57489;37.404;24.920;2023-06-26T03:15:42;10.87;;;4.03;;
70122;SDS011;57489;37.404;24.920;2023-06-26T03:20:42;7.93;;;4.10;;
70122;SDS011;57489;37.404;24.920;2023-06-26T03:25:42;8.93;;;4.63;;
70122;SDS011;57489;37.404;24.920;2023-06-26T03:30:42;8.45;;;3.95;;
70122;SDS011;57489;37.404;24.920;2023-06-26T03:35:43;7.17;;;4.17;;
70122;SDS011;57489;37.404;24.920;2023-06-26T03:40:43;9.05;;;4.07;;
70122;SDS011;57489;37.404;24.920;2023-06-26T03:45:43;8.82;;;4.05;;
70122;SDS011;57489;37.404;24.920;2023-06-26T03:50:44;10.82;;;3.92;;
70122;SDS011;57489;37.404;24.920;2023-06-26T03:55:44;9.73;;;4.23;;
70122;SDS011;57489;37.404;24.920;2023-06-26T04:00:44;9.23;;;4.18;;
70122;SDS011;57489;37.404;24.920;2023-06-26T04:05:44;8.20;;;4.00;;
70122;SDS011;57489;37.404;24.920;2023-06-26T04:10:44;8.70;;;4.40;;
70122;SDS011;57489;37.404;24.920;2023-06-26T04:15:45;11.00;;;4.05;;
70122;SDS011;57489;37.404;24.920;2023-06-26T04:21:03;8.40;;;4.18;;
70122;SDS011;57489;37.404;24.920;2023-06-26T04:26:04;8.88;;;3.80;;
70122;SDS011;57489;37.404;24.920;2023-06-26T04:31:05;8.43;;;3.87;;
70122;SDS011;57489;37.404;24.920;2023-06-26T04:36:05;8.27;;;3.50;;
70122;SDS011;57489;37.404;24.920;2023-06-26T04:41:05;8.53;;;3.60;;
70122;SDS011;57489;37.404;24.920;2023-06-26T04:46:05;8.63;;;3.90;;
70122;SDS011;57489;37.404;24.920;2023-06-26T04:51:06;7.65;;;3.40;;
70122;SDS011;57489;37.404;24.920;2023-06-26T04:56:06;6.70;;;3.50;;
70122;SDS011;57489;37.404;24.920;2023-06-26T05:01:06;7.60;;;4.22;;
70122;SDS011;57489;37.404;24.920;2023-06-26T05:06:06;5.63;;;2.90;;
70122;SDS011;57489;37.404;24.920;2023-06-26T05:11:07;6.37;;;3.23;;
70122;SDS011;57489;37.404;24.920;2023-06-26T05:16:08;6.13;;;3.47;;
70122;SDS011;57489;37.404;24.920;2023-06-26T05:21:08;8.68;;;3.60;;
70122;SDS011;57489;37.404;24.920;2023-06-26T05:26:09;6.80;;;3.87;;
70122;SDS011;57489;37.404;24.920;2023-06-26T05:31:09;8.33;;;3.60;;
70122;SDS011;57489;37.404;24.920;2023-06-26T05:36:09;7.63;;;3.77;;
70122;SDS011;57489;37.404;24.920;2023-06-26T05:41:11;11.63;;;4.53;;
70122;SDS011;57489;37.404;24.920;2023-06-26T05:46:12;7.83;;;4.17;;
70122;SDS011;57489;37.404;24.920;2023-06-26T05:51:12;10.07;;;4.32;;
70122;SDS011;57489;37.404;24.920;2023-06-26T05:56:12;10.20;;;4.53;;
70122;SDS011;57489;37.404;24.920;2023-06-26T06:01:13;9.93;;;4.63;;
70122;SDS011;57489;37.404;24.920;2023-06-26T06:06:13;11.52;;;4.78;;
70122;SDS011;57489;37.404;24.920;2023-06-26T06:11:13;9.57;;;4.68;;
70122;SDS011;57489;37.404;24.920;2023-06-26T06:16:13;10.53;;;5.60;;
70122;SDS011;57489;37.404;24.920;2023-06-26T06:21:14;9.90;;;4.20;;
70122;SDS011;57489;37.404;24.920;2023-06-26T06:26:14;8.05;;;3.95;;
70122;SDS011;57489;37.404;24.920;2023-06-26T06:31:14;9.00;;;4.57;;
70122;SDS011;57489;37.404;24.920;2023-06-26T06:36:14;8.63;;;4.55;;
70122;SDS011;57489;37.404;24.920;2023-06-26T06:41:15;8.20;;;4.90;;
70122;SDS011;57489;37.404;24.920;2023-06-26T06:46:15;8.70;;;4.05;;
70122;SDS011;57489;37.404;24.920;2023-06-26T06:51:15;8.38;;;4.28;;
70122;SDS011;57489;37.404;24.920;2023-06-26T06:56:15;9.25;;;3.88;;
70122;SDS011;57489;37.404;24.920;2023-06-26T07:01:16;7.82;;;4.00;;
70122;SDS011;57489;37.404;24.920;2023-06-26T07:06:16;14.67;;;5.23;;
70122;SDS011;57489;37.404;24.920;2023-06-26T07:11:16;9.20;;;4.28;;
70122;SDS011;57489;37.404;24.920;2023-06-26T07:16:16;8.10;;;3.75;;
70122;SDS011;57489;37.404;24.920;2023-06-26T07:21:16;7.30;;;3.83;;
70122;SDS011;57489;37.404;24.920;2023-06-26T07:26:17;10.23;;;4.07;;
70122;SDS011;57489;37.404;24.920;2023-06-26T07:31:17;5.85;;;3.08;;
70122;SDS011;57489;37.404;24.920;2023-06-26T07:36:17;9.13;;;3.63;;
70122;SDS011;57489;37.404;24.920;2023-06-26T07:41:17;8.57;;;3.80;;
70122;SDS011;57489;37.404;24.920;2023-06-26T07:46:18;6.57;;;3.58;;
70122;SDS011;57489;37.404;24.920;2023-06-26T07:51:18;9.68;;;4.10;;
70122;SDS011;57489;37.404;24.920;2023-06-26T07:56:18;9.13;;;4.00;;
70122;SDS011;57489;37.404;24.920;2023-06-26T08:01:18;10.90;;;3.35;;
70122;SDS011;57489;37.404;24.920;2023-06-26T08:06:19;7.65;;;3.58;;
70122;SDS011;57489;37.404;24.920;2023-06-26T08:11:19;8.50;;;3.83;;
70122;SDS011;57489;37.404;24.920;2023-06-26T08:16:19;10.02;;;4.07;;
70122;SDS011;57489;37.404;24.920;2023-06-26T08:21:19;8.93;;;4.15;;
70122;SDS011;57489;37.404;24.920;2023-06-26T08:26:20;7.17;;;3.57;;
70122;SDS011;57489;37.404;24.920;2023-06-26T08:31:20;9.77;;;4.88;;
70122;SDS011;57489;37.404;24.920;2023-06-26T08:36:20;7.27;;;4.00;;
70122;SDS011;57489;37.404;24.920;2023-06-26T08:41:20;10.20;;;4.60;;
70122;SDS011;57489;37.404;24.920;2023-06-26T08:46:21;12.03;;;4.50;;
70122;SDS011;57489;37.404;24.920;2023-06-26T08:51:21;10.57;;;4.13;;
70122;SDS011;57489;37.404;24.920;2023-06-26T08:56:24;8.10;;;3.97;;
70122;SDS011;57489;37.404;24.920;2023-06-26T09:01:24;12.27;;;4.53;;
70122;SDS011;57489;37.404;24.920;2023-06-26T09:06:24;12.13;;;4.37;;
70122;SDS011;57489;37.404;24.920;2023-06-26T09:11:25;7.20;;;4.05;;
70122;SDS011;57489;37.404;24.920;2023-06-26T09:16:25;9.30;;;4.05;;
70122;SDS011;57489;37.404;24.920;2023-06-26T09:21:26;9.63;;;3.97;;
70122;SDS011;57489;37.404;24.920;2023-06-26T09:26:26;9.43;;;4.18;;
70122;SDS011;57489;37.404;24.920;2023-06-26T09:31:26;8.70;;;4.55;;
70122;SDS011;57489;37.404;24.920;2023-06-26T09:36:30;7.85;;;4.13;;
70122;SDS011;57489;37.404;24.920;2023-06-26T09:41:30;10.68;;;4.05;;
70122;SDS011;57489;37.404;24.920;2023-06-26T09:46:31;10.05;;;4.45;;
70122;SDS011;57489;37.404;24.920;2023-06-26T09:51:31;7.33;;;3.83;;
70122;SDS011;57489;37.404;24.920;2023-06-26T09:56:32;8.03;;;4.20;;
70122;SDS011;57489;37.404;24.920;2023-06-26T10:01:33;7.40;;;3.87;;
70122;SDS011;57489;37.404;24.920;2023-06-26T10:06:34;11.27;;;4.15;;
70122;SDS011;57489;37.404;24.920;2023-06-26T10:11:45;9.30;;;4.17;;
70122;SDS011;57489;37.404;24.920;2023-06-26T10:16:46;7.38;;;3.80;;
70122;SDS011;57489;37.404;24.920;2023-06-26T10:21:48;9.02;;;3.80;;
70122;SDS011;57489;37.404;24.920;2023-06-26T10:26:49;9.07;;;4.60;;
70122;SDS011;57489;37.404;24.920;2023-06-26T10:31:50;8.23;;;3.90;;
70122;SDS011;57489;37.404;24.920;2023-06-26T10:37:01;10.63;;;4.37;;
70122;SDS011;57489;37.404;24.920;2023-06-26T10:42:08;9.50;;;4.15;;
70122;SDS011;57489;37.404;24.920;2023-06-26T10:47:08;9.30;;;4.00;;
70122;SDS011;57489;37.404;24.920;2023-06-26T10:52:08;8.97;;;4.13;;
70122;SDS011;57489;37.404;24.920;2023-06-26T10:57:09;7.65;;;4.18;;
70122;SDS011;57489;37.404;24.920;2023-06-26T11:02:09;8.10;;;4.13;;
70122;SDS011;57489;37.404;24.920;2023-06-26T11:07:16;10.33;;;4.97;;
70122;SDS011;57489;37.404;24.920;2023-06-26T11:12:32;11.03;;;5.03;;
70122;SDS011;57489;37.404;24.920;2023-06-26T11:17:34;10.20;;;4.75;;
70122;SDS011;57489;37.404;24.920;2023-06-26T11:22:35;11.00;;;4.80;;
70122;SDS011;57489;37.404;24.920;2023-06-26T11:27:39;11.90;;;4.73;;
70122;SDS011;57489;37.404;24.920;2023-06-26T11:32:39;11.00;;;5.50;;
70122;SDS011;57489;37.404;24.920;2023-06-26T11:37:39;9.80;;;4.77;;
70122;SDS011;57489;37.404;24.920;2023-06-26T11:42:39;9.57;;;4.35;;
70122;SDS011;57489;37.404;24.920;2023-06-26T11:47:40;10.13;;;4.90;;
70122;SDS011;57489;37.404;24.920;2023-06-26T11:52:41;9.13;;;4.60;;
70122;SDS011;57489;37.404;24.920;2023-06-26T11:57:41;9.53;;;4.17;;
70122;SDS011;57489;37.404;24.920;2023-06-26T12:02:42;8.32;;;4.15;;
70122;SDS011;57489;37.404;24.920;2023-06-26T12:07:42;9.50;;;4.90;;
70122;SDS011;57489;37.404;24.920;2023-06-26T12:12:43;9.20;;;4.67;;
70122;SDS011;57489;37.404;24.920;2023-06-26T12:17:43;11.00;;;4.63;;
70122;SDS011;57489;37.404;24.920;2023-06-26T12:22:45;9.60;;;4.47;;
70122;SDS011;57489;37.404;24.920;2023-06-26T12:27:45;13.73;;;4.15;;
70122;SDS011;57489;37.404;24.920;2023-06-26T12:32:45;7.35;;;4.53;;
70122;SDS011;57489;37.404;24.920;2023-06-26T12:37:46;10.13;;;4.57;;
70122;SDS011;57489;37.404;24.920;2023-06-26T12:42:46;9.00;;;4.65;;
70122;SDS011;57489;37.404;24.920;2023-06-26T12:47:46;6.80;;;4.17;;
70122;SDS011;57489;37.404;24.920;2023-06-26T12:52:46;9.98;;;4.50;;
70122;SDS011;57489;37.404;24.920;2023-06-26T12:57:47;7.28;;;4.18;;
70122;SDS011;57489;37.404;24.920;2023-06-26T13:02:47;8.15;;;4.15;;
70122;SDS011;57489;37.404;24.920;2023-06-26T13:07:47;10.35;;;4.50;;
70122;SDS011;57489;37.404;24.920;2023-06-26T13:12:47;10.40;;;4.10;;
70122;SDS011;57489;37.404;24.920;2023-06-26T13:17:48;9.60;;;4.70;;
70122;SDS011;57489;37.404;24.920;2023-06-26T13:22:48;7.63;;;4.43;;
70122;SDS011;57489;37.404;24.920;2023-06-26T13:27:48;8.65;;;4.28;;
70122;SDS011;57489;37.404;24.920;2023-06-26T13:32:48;7.07;;;4.43;;
70122;SDS011;57489;37.404;24.920;2023-06-26T13:37:49;10.47;;;4.07;;
70122;SDS011;57489;37.404;24.920;2023-06-26T13:42:49;7.63;;;3.83;;
70122;SDS011;57489;37.404;24.920;2023-06-26T13:47:49;9.45;;;4.20;;
70122;SDS011;57489;37.404;24.920;2023-06-26T13:52:49;7.45;;;3.85;;
70122;SDS011;57489;37.404;24.920;2023-06-26T13:57:49;8.32;;;4.35;;
70122;SDS011;57489;37.404;24.920;2023-06-26T14:02:50;11.95;;;3.58;;
70122;SDS011;57489;37.404;24.920;2023-06-26T14:07:50;7.47;;;3.00;;
70122;SDS011;57489;37.404;24.920;2023-06-26T14:12:50;7.40;;;3.40;;
70122;SDS011;57489;37.404;24.920;2023-06-26T14:17:51;7.80;;;2.63;;
70122;SDS011;57489;37.404;24.920;2023-06-26T14:22:51;6.07;;;3.15;;
70122;SDS011;57489;37.404;24.920;2023-06-26T14:27:51;6.63;;;2.67;;
70122;SDS011;57489;37.404;24.920;2023-06-26T14:32:52;6.03;;;3.00;;
70122;SDS011;57489;37.404;24.920;2023-06-26T14:37:52;10.73;;;3.63;;
70122;SDS011;57489;37.404;24.920;2023-06-26T14:42:52;7.13;;;3.03;;
70122;SDS011;57489;37.404;24.920;2023-06-26T14:47:52;7.32;;;3.10;;
70122;SDS011;57489;37.404;24.920;2023-06-26T14:52:53;7.73;;;2.40;;
70122;SDS011;57489;37.404;24.920;2023-06-26T14:57:53;7.47;;;2.50;;
70122;SDS011;57489;37.404;24.920;2023-06-26T15:02:53;6.10;;;2.42;;
70122;SDS011;57489;37.404;24.920;2023-06-26T15:07:53;5.38;;;2.85;;
70122;SDS011;57489;37.404;24.920;2023-06-26T15:12:53;5.55;;;2.53;;
70122;SDS011;57489;37.404;24.920;2023-06-26T15:17:54;5.85;;;2.70;;
70122;SDS011;57489;37.404;24.920;2023-06-26T15:22:54;7.10;;;2.58;;
70122;SDS011;57489;37.404;24.920;2023-06-26T15:27:54;5.43;;;2.20;;
70122;SDS011;57489;37.404;24.920;2023-06-26T15:32:54;8.25;;;2.42;;
70122;SDS011;57489;37.404;24.920;2023-06-26T15:37:55;7.35;;;2.50;;
70122;SDS011;57489;37.404;24.920;2023-06-26T15:42:55;6.30;;;2.10;;
70122;SDS011;57489;37.404;24.920;2023-06-26T15:47:55;7.33;;;2.67;;
70122;SDS011;57489;37.404;24.920;2023-06-26T15:52:55;5.30;;;2.20;;
70122;SDS011;57489;37.404;24.920;2023-06-26T15:57:56;5.03;;;2.30;;
70122;SDS011;57489;37.404;24.920;2023-06-26T16:02:56;6.00;;;2.88;;
70122;SDS011;57489;37.404;24.920;2023-06-26T16:07:56;6.93;;;3.22;;
70122;SDS011;57489;37.404;24.920;2023-06-26T16:12:56;6.35;;;2.78;;
70122;SDS011;57489;37.404;24.920;2023-06-26T16:17:56;8.05;;;3.42;;
70122;SDS011;57489;37.404;24.920;2023-06-26T16:22:57;8.23;;;3.75;;
70122;SDS011;57489;37.404;24.920;2023-06-26T16:27:57;6.43;;;3.47;;
70122;SDS011;57489;37.404;24.920;2023-06-26T16:32:57;7.70;;;3.93;;
70122;SDS011;57489;37.404;24.920;2023-06-26T16:37:57;11.53;;;3.60;;
70122;SDS011;57489;37.404;24.920;2023-06-26T16:42:58;7.18;;;3.75;;
70122;SDS011;57489;37.404;24.920;2023-06-26T16:47:58;7.57;;;3.88;;
70122;SDS011;57489;37.404;24.920;2023-06-26T16:52:58;7.03;;;3.70;;
70122;SDS011;57489;37.404;24.920;2023-06-26T16:57:58;7.47;;;3.85;;
70122;SDS011;57489;37.404;24.920;2023-06-26T17:02:59;6.68;;;3.60;;
70122;SDS011;57489;37.404;24.920;2023-06-26T17:07:59;8.75;;;3.58;;
70122;SDS011;57489;37.404;24.920;2023-06-26T17:12:59;7.80;;;2.97;;
70122;SDS011;57489;37.404;24.920;2023-06-26T17:18:00;7.30;;;3.28;;
70122;SDS011;57489;37.404;24.920;2023-06-26T17:23:00;7.53;;;3.73;;
70122;SDS011;57489;37.404;24.920;2023-06-26T17:28:00;8.15;;;3.92;;
70122;SDS011;57489;37.404;24.920;2023-06-26T17:33:00;6.57;;;3.35;;
70122;SDS011;57489;37.404;24.920;2023-06-26T17:38:01;8.00;;;3.43;;
70122;SDS011;57489;37.404;24.920;2023-06-26T17:43:01;5.53;;;2.70;;
70122;SDS011;57489;37.404;24.920;2023-06-26T17:48:01;6.50;;;2.90;;
70122;SDS011;57489;37.404;24.920;2023-06-26T17:53:01;6.93;;;2.90;;
70122;SDS011;57489;37.404;24.920;2023-06-26T17:58:02;7.25;;;2.70;;
70122;SDS011;57489;37.404;24.920;2023-06-26T18:03:02;6.18;;;3.40;;
70122;SDS011;57489;37.404;24.920;2023-06-26T18:08:02;5.25;;;2.38;;
70122;SDS011;57489;37.404;24.920;2023-06-26T18:13:03;4.73;;;2.27;;
70122;SDS011;57489;37.404;24.920;2023-06-26T18:18:03;6.35;;;2.30;;
70122;SDS011;57489;37.404;24.920;2023-06-26T18:23:03;6.05;;;2.83;;
70122;SDS011;57489;37.404;24.920;2023-06-26T18:28:03;5.13;;;2.20;;
70122;SDS011;57489;37.404;24.920;2023-06-26T18:33:04;5.35;;;2.40;;
70122;SDS011;57489;37.404;24.920;2023-06-26T18:38:04;4.43;;;1.70;;
70122;SDS011;57489;37.404;24.920;2023-06-26T18:43:04;8.90;;;2.03;;
70122;SDS011;57489;37.404;24.920;2023-06-26T18:48:05;5.68;;;2.25;;
70122;SDS011;57489;37.404;24.920;2023-06-26T18:53:05;4.30;;;1.90;;
70122;SDS011;57489;37.404;24.920;2023-06-26T18:58:05;6.43;;;1.90;;
70122;SDS011;57489;37.404;24.920;2023-06-26T19:03:06;5.05;;;1.75;;
70122;SDS011;57489;37.404;24.920;2023-06-26T19:08:06;4.77;;;1.87;;
70122;SDS011;57489;37.404;24.920;2023-06-26T19:13:06;8.48;;;3.28;;
70122;SDS011;57489;37.404;24.920;2023-06-26T19:18:06;5.93;;;2.30;;
70122;SDS011;57489;37.404;24.920;2023-06-26T19:23:07;5.57;;;2.10;;
70122;SDS011;57489;37.404;24.920;2023-06-26T19:28:07;4.78;;;2.15;;
70122;SDS011;57489;37.404;24.920;2023-06-26T19:33:07;5.57;;;2.10;;
70122;SDS011;57489;37.404;24.920;2023-06-26T19:38:07;5.40;;;2.40;;
70122;SDS011;57489;37.404;24.920;2023-06-26T19:43:09;5.88;;;2.38;;
70122;SDS011;57489;37.404;24.920;2023-06-26T19:48:09;5.85;;;2.55;;
70122;SDS011;57489;37.404;24.920;2023-06-26T19:53:10;5.97;;;2.15;;
70122;SDS011;57489;37.404;24.920;2023-06-26T19:58:10;4.35;;;2.15;;
70122;SDS011;57489;37.404;24.920;2023-06-26T20:03:10;4.50;;;2.00;;
70122;SDS011;57489;37.404;24.920;2023-06-26T20:08:10;3.90;;;1.88;;
70122;SDS011;57489;37.404;24.920;2023-06-26T20:13:11;4.20;;;1.95;;
70122;SDS011;57489;37.404;24.920;2023-06-26T20:18:11;4.13;;;2.00;;
70122;SDS011;57489;37.404;24.920;2023-06-26T20:23:11;7.13;;;2.75;;
70122;SDS011;57489;37.404;24.920;2023-06-26T20:28:11;5.35;;;2.20;;
70122;SDS011;57489;37.404;24.920;2023-06-26T20:33:12;6.72;;;2.53;;
70122;SDS011;57489;37.404;24.920;2023-06-26T20:38:12;5.20;;;2.03;;
70122;SDS011;57489;37.404;24.920;2023-06-26T20:43:13;4.28;;;1.98;;
70122;SDS011;57489;37.404;24.920;2023-06-26T20:48:13;5.60;;;2.47;;
70122;SDS011;57489;37.404;24.920;2023-06-26T20:53:14;7.80;;;2.03;;
70122;SDS011;57489;37.404;24.920;2023-06-26T20:58:14;5.93;;;3.40;;
70122;SDS011;57489;37.404;24.920;2023-06-26T21:03:14;5.13;;;1.90;;
70122;SDS011;57489;37.404;24.920;2023-06-26T21:08:15;5.38;;;2.17;;
70122;SDS011;57489;37.404;24.920;2023-06-26T21:13:15;4.85;;;2.13;;
70122;SDS011;57489;37.404;24.920;2023-06-26T21:18:15;7.47;;;2.47;;
70122;SDS011;57489;37.404;24.920;2023-06-26T21:23:16;6.33;;;2.50;;
70122;SDS011;57489;37.404;24.920;2023-06-26T21:28:16;4.25;;;2.03;;
70122;SDS011;57489;37.404;24.920;2023-06-26T21:33:16;5.95;;;2.80;;
70122;SDS011;57489;37.404;24.920;2023-06-26T21:38:17;6.33;;;2.17;;
70122;SDS011;57489;37.404;24.920;2023-06-26T21:43:17;5.10;;;1.90;;
70122;SDS011;57489;37.404;24.920;2023-06-26T21:48:17;5.23;;;2.10;;
70122;SDS011;57489;37.404;24.920;2023-06-26T21:53:18;5.70;;;2.20;;
70122;SDS011;57489;37.404;24.920;2023-06-26T21:58:18;4.88;;;1.95;;
70122;SDS011;57489;37.404;24.920;2023-06-26T22:03:18;4.63;;;2.13;;
70122;SDS011;57489;37.404;24.920;2023-06-26T22:08:19;5.10;;;2.20;;
70122;SDS011;57489;37.404;24.920;2023-06-26T22:13:19;5.73;;;2.03;;
70122;SDS011;57489;37.404;24.920;2023-06-26T22:18:19;6.03;;;2.20;;
70122;SDS011;57489;37.404;24.920;2023-06-26T22:23:19;6.22;;;2.08;;
70122;SDS011;57489;37.404;24.920;2023-06-26T22:28:20;6.18;;;2.40;;
70122;SDS011;57489;37.404;24.920;2023-06-26T22:33:20;5.43;;;2.22;;
70122;SDS011;57489;37.404;24.920;2023-06-26T22:38:20;6.15;;;2.40;;
70122;SDS011;57489;37.404;24.920;2023-06-26T22:43:20;5.28;;;2.40;;
70122;SDS011;57489;37.404;24.920;2023-06-26T22:48:21;5.82;;;2.42;;
70122;SDS011;57489;37.404;24.920;2023-06-26T22:53:21;9.45;;;2.47;;
70122;SDS011;57489;37.404;24.920;2023-06-26T22:58:23;8.40;;;2.70;;
70122;SDS011;57489;37.404;24.920;2023-06-26T23:03:23;6.88;;;2.80;;
70122;SDS011;57489;37.404;24.920;2023-06-26T23:08:24;9.07;;;2.80;;
70122;SDS011;57489;37.404;24.920;2023-06-26T23:13:24;12.37;;;3.23;;
70122;SDS011;57489;37.404;24.920;2023-06-26T23:18:25;7.25;;;2.85;;
70122;SDS011;57489;37.404;24.920;2023-06-26T23:23:25;5.70;;;3.00;;
70122;SDS011;57489;37.404;24.920;2023-06-26T23:28:25;8.05;;;2.90;;
70122;SDS011;57489;37.404;24.920;2023-06-26T23:33:25;7.25;;;2.58;;
70122;SDS011;57489;37.404;24.920;2023-06-26T23:38:25;8.00;;;2.95;;
70122;SDS011;57489;37.404;24.920;2023-06-26T23:43:26;6.38;;;3.00;;
70122;SDS011;57489;37.404;24.920;2023-06-26T23:48:26;7.27;;;2.90;;
70122;SDS011;57489;37.404;24.920;2023-06-26T23:53:26;6.80;;;3.30;;
70122;SDS011;57489;37.404;24.920;2023-06-26T23:58:26;6.85;;;3.33;;
